createdAt,value
2017-05-28T00:00:16.755Z,20.88
2017-05-28T00:01:25.717Z,20.95
2017-05-28T00:02:34.680Z,20.94
2017-05-28T00:03:43.953Z,20.87
2017-05-28T00:04:52.927Z,20.95
2017-05-28T00:06:01.904Z,20.92
2017-05-28T00:07:10.864Z,20.91
2017-05-28T00:08:19.838Z,20.87
2017-05-28T00:09:29.101Z,20.92
2017-05-28T00:10:38.071Z,20.89
2017-05-28T00:11:47.031Z,20.94
2017-05-28T00:12:55.991Z,20.95
2017-05-28T00:14:04.957Z,20.84
2017-05-28T00:15:14.224Z,20.85
2017-05-28T00:16:23.195Z,20.87
2017-05-28T00:17:32.478Z,20.82
2017-05-28T00:18:41.446Z,20.84
2017-05-28T00:19:50.412Z,20.73
2017-05-28T00:20:59.673Z,20.84
2017-05-28T00:22:08.636Z,20.79
2017-05-28T00:23:17.931Z,20.79
2017-05-28T00:24:26.899Z,20.72
2017-05-28T00:25:35.858Z,20.7
2017-05-28T00:26:45.123Z,20.67
2017-05-28T00:27:54.093Z,20.59
2017-05-28T00:29:03.054Z,20.58
2017-05-28T00:30:12.013Z,20.57
2017-05-28T00:31:20.985Z,20.55
2017-05-28T00:32:30.538Z,20.47
2017-05-28T00:33:39.589Z,20.5
2017-05-28T00:34:48.560Z,20.5
2017-05-28T00:35:57.522Z,20.47
2017-05-28T00:37:06.576Z,20.48
2017-05-28T00:38:15.789Z,20.48
2017-05-28T00:39:24.751Z,20.47
2017-05-28T00:40:33.716Z,20.42
2017-05-28T00:41:42.678Z,20.33
2017-05-28T00:42:51.648Z,20.38
2017-05-28T00:44:01.246Z,20.39
2017-05-28T00:45:10.210Z,20.42
2017-05-28T00:46:19.175Z,20.48
2017-05-28T00:47:28.205Z,20.35
2017-05-28T00:48:37.174Z,20.35
2017-05-28T00:49:46.437Z,20.28
2017-05-28T00:50:55.404Z,20.29
2017-05-28T00:52:04.372Z,20.33
2017-05-28T00:53:13.339Z,20.26
2017-05-28T00:54:22.305Z,20.16
2017-05-28T00:55:31.616Z,20.21
2017-05-28T00:56:40.581Z,20.16
2017-05-28T00:57:49.544Z,20.1
2017-05-28T00:58:58.507Z,20.05
2017-05-28T01:00:07.472Z,20.05
2017-05-28T01:01:16.682Z,20.1
2017-05-28T01:02:25.654Z,19.99
2017-05-28T01:03:34.609Z,20.01
2017-05-28T01:04:43.571Z,20.05
2017-05-28T01:05:52.540Z,20.06
2017-05-28T01:07:01.760Z,20.08
2017-05-28T01:08:10.729Z,20.08
2017-05-28T01:09:19.693Z,20.01
2017-05-28T01:10:28.666Z,20.01
2017-05-28T01:11:37.630Z,19.96
2017-05-28T01:12:46.843Z,19.84
2017-05-28T01:13:55.805Z,19.88
2017-05-28T01:15:04.858Z,19.88
2017-05-28T01:16:13.821Z,19.74
2017-05-28T01:17:22.789Z,19.8
2017-05-28T01:18:32.005Z,19.76
2017-05-28T01:19:40.967Z,19.8
2017-05-28T01:20:49.930Z,19.76
2017-05-28T01:21:58.895Z,19.8
2017-05-28T01:23:07.915Z,19.76
2017-05-28T01:24:17.132Z,19.69
2017-05-28T01:25:26.097Z,19.71
2017-05-28T01:26:35.068Z,19.68
2017-05-28T01:27:44.033Z,19.73
2017-05-28T01:28:52.998Z,19.73
2017-05-28T01:30:02.261Z,19.66
2017-05-28T01:31:11.314Z,19.69
2017-05-28T01:32:20.279Z,19.74
2017-05-28T01:33:29.239Z,19.71
2017-05-28T01:34:38.529Z,19.63
2017-05-28T01:35:47.795Z,19.69
2017-05-28T01:36:56.756Z,19.66
2017-05-28T01:38:05.719Z,19.63
2017-05-28T01:39:14.685Z,19.73
2017-05-28T01:40:23.643Z,19.74
2017-05-28T01:41:32.849Z,19.59
2017-05-28T01:42:41.812Z,19.66
2017-05-28T01:43:50.794Z,19.63
2017-05-28T01:44:59.765Z,19.59
2017-05-28T01:46:08.725Z,19.63
2017-05-28T01:47:17.935Z,19.61
2017-05-28T01:48:26.898Z,19.63
2017-05-28T01:49:35.852Z,19.59
2017-05-28T01:50:44.815Z,19.65
2017-05-28T01:51:53.779Z,19.55
2017-05-28T01:53:02.996Z,19.65
2017-05-28T01:54:11.964Z,19.58
2017-05-28T01:55:20.941Z,19.54
2017-05-28T01:56:30.226Z,19.5
2017-05-28T01:57:39.185Z,19.43
2017-05-28T01:58:48.451Z,19.4
2017-05-28T01:59:57.421Z,19.4
2017-05-28T02:01:06.386Z,19.36
2017-05-28T02:02:15.347Z,19.4
2017-05-28T02:03:24.313Z,19.31
2017-05-28T02:04:33.529Z,19.36
2017-05-28T02:05:42.493Z,19.31
2017-05-28T02:06:51.453Z,19.28
2017-05-28T02:08:00.416Z,19.39
2017-05-28T02:09:09.380Z,19.29
2017-05-28T02:10:18.592Z,19.31
2017-05-28T02:11:27.551Z,19.18
2017-05-28T02:12:36.514Z,19.28
2017-05-28T02:13:45.477Z,19.23
2017-05-28T02:14:54.440Z,19.25
2017-05-28T02:16:03.651Z,19.18
2017-05-28T02:17:12.618Z,19.22
2017-05-28T02:18:21.668Z,19.22
2017-05-28T02:19:30.637Z,19.26
2017-05-28T02:20:39.603Z,19.22
2017-05-28T02:21:48.905Z,19.16
2017-05-28T02:22:57.868Z,19.11
2017-05-28T02:24:06.828Z,19.16
2017-05-28T02:25:15.786Z,19.19
2017-05-28T02:26:24.749Z,19.1
2017-05-28T02:27:33.961Z,19.13
2017-05-28T02:28:42.916Z,19.06
2017-05-28T02:29:51.877Z,19.16
2017-05-28T02:31:00.836Z,19.13
2017-05-28T02:32:09.804Z,19.1
2017-05-28T02:33:19.063Z,19.16
2017-05-28T02:34:28.117Z,19.07
2017-05-28T02:35:37.080Z,19.06
2017-05-28T02:36:46.038Z,19
2017-05-28T02:37:55.001Z,18.98
2017-05-28T02:39:04.212Z,18.94
2017-05-28T02:40:13.170Z,18.94
2017-05-28T02:41:22.136Z,18.94
2017-05-28T02:42:31.102Z,18.95
2017-05-28T02:43:40.062Z,18.95
2017-05-28T02:44:49.280Z,18.99
2017-05-28T02:45:58.251Z,19.04
2017-05-28T02:47:07.213Z,18.99
2017-05-28T02:48:16.173Z,18.95
2017-05-28T02:49:25.542Z,19
2017-05-28T02:50:34.751Z,18.92
2017-05-28T02:51:43.721Z,18.92
2017-05-28T02:52:52.686Z,18.92
2017-05-28T02:54:01.647Z,18.91
2017-05-28T02:55:10.610Z,18.91
2017-05-28T02:56:19.830Z,18.85
2017-05-28T02:57:28.786Z,18.88
2017-05-28T02:58:37.752Z,18.85
2017-05-28T02:59:46.716Z,18.84
2017-05-28T03:00:55.681Z,18.81
2017-05-28T03:02:04.888Z,18.81
2017-05-28T03:03:13.941Z,18.8
2017-05-28T03:04:22.907Z,18.84
2017-05-28T03:05:31.871Z,18.8
2017-05-28T03:06:40.826Z,18.7
2017-05-28T03:07:50.132Z,18.78
2017-05-28T03:08:59.102Z,18.73
2017-05-28T03:10:08.386Z,18.75
2017-05-28T03:11:17.347Z,18.72
2017-05-28T03:12:26.308Z,18.69
2017-05-28T03:13:35.520Z,18.67
2017-05-28T03:14:44.565Z,18.63
2017-05-28T03:15:53.541Z,18.69
2017-05-28T03:17:02.514Z,18.62
2017-05-28T03:18:11.470Z,18.67
2017-05-28T03:19:20.683Z,18.66
2017-05-28T03:20:29.646Z,18.69
2017-05-28T03:21:38.611Z,18.65
2017-05-28T03:22:47.571Z,18.66
2017-05-28T03:23:56.536Z,18.58
2017-05-28T03:25:05.797Z,18.62
2017-05-28T03:26:14.762Z,18.65
2017-05-28T03:27:23.725Z,18.63
2017-05-28T03:28:33.013Z,18.63
2017-05-28T03:29:41.977Z,18.72
2017-05-28T03:30:51.187Z,18.55
2017-05-28T03:32:00.149Z,18.65
2017-05-28T03:33:09.113Z,18.69
2017-05-28T03:34:18.080Z,18.63
2017-05-28T03:35:27.037Z,18.63
2017-05-28T03:36:36.251Z,18.66
2017-05-28T03:37:45.215Z,18.67
2017-05-28T03:38:54.178Z,18.69
2017-05-28T03:40:03.140Z,18.63
2017-05-28T03:41:12.436Z,18.63
2017-05-28T03:42:21.651Z,18.62
2017-05-28T03:43:30.694Z,18.6
2017-05-28T03:44:39.658Z,18.6
2017-05-28T03:45:48.711Z,18.67
2017-05-28T03:46:57.672Z,18.6
2017-05-28T03:48:06.880Z,18.63
2017-05-28T03:49:15.857Z,18.7
2017-05-28T03:50:24.907Z,18.54
2017-05-28T03:51:33.865Z,18.63
2017-05-28T03:52:42.824Z,18.62
2017-05-28T03:53:52.035Z,18.58
2017-05-28T03:55:01.003Z,18.6
2017-05-28T03:56:09.963Z,18.65
2017-05-28T03:57:18.919Z,18.63
2017-05-28T03:58:27.887Z,18.52
2017-05-28T03:59:37.196Z,18.6
2017-05-28T04:00:46.160Z,18.62
2017-05-28T04:01:55.210Z,18.65
2017-05-28T04:03:04.171Z,18.66
2017-05-28T04:04:13.131Z,18.66
2017-05-28T04:05:22.437Z,18.63
2017-05-28T04:06:31.397Z,18.6
2017-05-28T04:07:40.363Z,18.69
2017-05-28T04:08:49.331Z,18.66
2017-05-28T04:09:58.291Z,18.58
2017-05-28T04:11:07.586Z,18.57
2017-05-28T04:12:16.552Z,18.63
2017-05-28T04:13:25.514Z,18.6
2017-05-28T04:14:34.476Z,18.65
2017-05-28T04:15:43.444Z,18.58
2017-05-28T04:16:52.739Z,18.72
2017-05-28T04:18:01.847Z,18.63
2017-05-28T04:19:10.806Z,18.58
2017-05-28T04:20:19.766Z,18.63
2017-05-28T04:21:28.726Z,18.65
2017-05-28T04:22:37.942Z,18.62
2017-05-28T04:23:46.897Z,18.57
2017-05-28T04:24:55.864Z,18.67
2017-05-28T04:26:04.827Z,18.66
2017-05-28T04:27:13.793Z,18.72
2017-05-28T04:28:23.091Z,18.65
2017-05-28T04:29:32.056Z,18.63
2017-05-28T04:30:41.023Z,18.66
2017-05-28T04:31:50.069Z,18.78
2017-05-28T04:32:59.035Z,18.76
2017-05-28T04:34:08.574Z,18.78
2017-05-28T04:35:17.528Z,18.75
2017-05-28T04:36:26.496Z,18.75
2017-05-28T04:37:35.461Z,18.76
2017-05-28T04:38:44.441Z,18.84
2017-05-28T04:39:53.655Z,18.85
2017-05-28T04:41:02.617Z,18.8
2017-05-28T04:42:11.662Z,18.81
2017-05-28T04:43:20.672Z,18.8
2017-05-28T04:44:29.647Z,18.81
2017-05-28T04:45:38.859Z,18.82
2017-05-28T04:46:47.818Z,18.87
2017-05-28T04:47:56.780Z,18.94
2017-05-28T04:49:05.738Z,18.95
2017-05-28T04:50:14.702Z,18.94
2017-05-28T04:51:23.913Z,18.94
2017-05-28T04:52:32.873Z,19
2017-05-28T04:53:41.834Z,19.02
2017-05-28T04:54:50.798Z,19.07
2017-05-28T04:55:59.766Z,19.11
2017-05-28T04:57:08.981Z,19.1
2017-05-28T04:58:18.035Z,19.11
2017-05-28T04:59:26.996Z,19.11
2017-05-28T05:00:35.958Z,19.08
2017-05-28T05:01:44.916Z,19.1
2017-05-28T05:02:54.134Z,19.18
2017-05-28T05:04:03.188Z,19.18
2017-05-28T05:05:12.167Z,19.19
2017-05-28T05:06:21.134Z,19.25
2017-05-28T05:07:30.095Z,19.21
2017-05-28T05:08:39.394Z,19.18
2017-05-28T05:09:48.359Z,19.32
2017-05-28T05:10:57.320Z,19.36
2017-05-28T05:12:06.282Z,19.36
2017-05-28T05:13:15.247Z,19.29
2017-05-28T05:14:24.464Z,19.33
2017-05-28T05:15:33.431Z,19.39
2017-05-28T05:16:42.716Z,19.39
2017-05-28T05:17:51.676Z,19.43
2017-05-28T05:19:00.643Z,19.51
2017-05-28T05:20:09.854Z,19.54
2017-05-28T05:21:18.818Z,19.51
2017-05-28T05:22:28.107Z,19.59
2017-05-28T05:23:37.078Z,19.65
2017-05-28T05:24:46.111Z,19.62
2017-05-28T05:25:55.326Z,19.66
2017-05-28T05:27:04.283Z,19.58
2017-05-28T05:28:13.241Z,19.73
2017-05-28T05:29:22.208Z,19.68
2017-05-28T05:30:31.172Z,19.69
2017-05-28T05:31:40.385Z,19.62
2017-05-28T05:32:49.351Z,19.81
2017-05-28T05:33:58.310Z,19.73
2017-05-28T05:35:07.273Z,19.77
2017-05-28T05:36:16.322Z,19.76
2017-05-28T05:37:25.536Z,19.81
2017-05-28T05:38:34.502Z,19.88
2017-05-28T05:39:43.558Z,19.87
2017-05-28T05:40:52.522Z,19.88
2017-05-28T05:42:01.486Z,19.87
2017-05-28T05:43:10.702Z,20.01
2017-05-28T05:44:19.664Z,20.05
2017-05-28T05:45:28.622Z,20.03
2017-05-28T05:46:37.584Z,20.08
2017-05-28T05:47:46.541Z,20.01
2017-05-28T05:48:55.798Z,20.08
2017-05-28T05:50:04.762Z,20.06
2017-05-28T05:51:13.723Z,20.16
2017-05-28T05:52:22.685Z,20.11
2017-05-28T05:53:31.647Z,20.21
2017-05-28T05:54:40.863Z,20.17
2017-05-28T05:55:49.821Z,20.36
2017-05-28T05:56:58.783Z,20.35
2017-05-28T05:58:07.745Z,20.29
2017-05-28T05:59:16.803Z,20.47
2017-05-28T06:00:26.012Z,20.35
2017-05-28T06:01:34.976Z,20.5
2017-05-28T06:02:43.938Z,20.5
2017-05-28T06:03:52.905Z,20.62
2017-05-28T06:05:01.867Z,20.69
2017-05-28T06:06:11.082Z,20.77
2017-05-28T06:07:20.042Z,20.73
2017-05-28T06:08:29.010Z,20.85
2017-05-28T06:09:37.979Z,20.88
2017-05-28T06:10:46.943Z,21.01
2017-05-28T06:11:56.154Z,21.21
2017-05-28T06:13:05.113Z,21.21
2017-05-28T06:14:14.080Z,21.31
2017-05-28T06:15:23.046Z,21.38
2017-05-28T06:16:32.024Z,21.28
2017-05-28T06:17:41.237Z,21.32
2017-05-28T06:18:50.216Z,21.25
2017-05-28T06:19:59.207Z,21.21
2017-05-28T06:21:08.260Z,21.28
2017-05-28T06:22:17.222Z,21.37
2017-05-28T06:23:26.434Z,21.29
2017-05-28T06:24:35.396Z,21.32
2017-05-28T06:25:44.451Z,21.37
2017-05-28T06:26:53.414Z,21.25
2017-05-28T06:28:02.704Z,21.35
2017-05-28T06:29:12.009Z,21.34
2017-05-28T06:30:20.979Z,21.31
2017-05-28T06:31:29.947Z,21.42
2017-05-28T06:32:38.922Z,21.35
2017-05-28T06:33:48.216Z,21.35
2017-05-28T06:34:57.429Z,21.42
2017-05-28T06:36:06.396Z,21.46
2017-05-28T06:37:15.356Z,21.46
2017-05-28T06:38:24.321Z,21.44
2017-05-28T06:39:33.290Z,21.52
2017-05-28T06:40:42.499Z,21.52
2017-05-28T06:41:51.459Z,21.58
2017-05-28T06:43:00.422Z,21.59
2017-05-28T06:44:09.387Z,21.54
2017-05-28T06:45:18.354Z,21.67
2017-05-28T06:46:27.653Z,21.61
2017-05-28T06:47:36.623Z,21.59
2017-05-28T06:48:45.585Z,21.61
2017-05-28T06:49:54.548Z,21.71
2017-05-28T06:51:03.515Z,21.72
2017-05-28T06:52:13.055Z,21.74
2017-05-28T06:53:22.020Z,21.77
2017-05-28T06:54:30.988Z,21.79
2017-05-28T06:55:39.962Z,21.88
2017-05-28T06:56:48.925Z,21.77
2017-05-28T06:57:58.140Z,21.88
2017-05-28T06:59:07.106Z,21.92
2017-05-28T07:00:16.070Z,21.96
2017-05-28T07:01:25.032Z,22
2017-05-28T07:02:34.651Z,22
2017-05-28T07:03:43.866Z,22.03
2017-05-28T07:04:52.839Z,22.06
2017-05-28T07:06:01.806Z,22.17
2017-05-28T07:07:10.861Z,22.14
2017-05-28T07:08:19.822Z,22.12
2017-05-28T07:09:29.039Z,22.15
2017-05-28T07:10:37.998Z,22.17
2017-05-28T07:11:46.964Z,22.28
2017-05-28T07:12:55.935Z,22.25
2017-05-28T07:14:04.901Z,22.24
2017-05-28T07:15:14.112Z,22.25
2017-05-28T07:16:23.079Z,22.42
2017-05-28T07:17:32.047Z,22.33
2017-05-28T07:18:41.096Z,22.36
2017-05-28T07:19:50.121Z,22.42
2017-05-28T07:20:59.336Z,22.43
2017-05-28T07:22:08.307Z,22.47
2017-05-28T07:23:17.274Z,22.47
2017-05-28T07:24:26.239Z,22.49
2017-05-28T07:25:35.207Z,22.54
2017-05-28T07:26:44.832Z,22.6
2017-05-28T07:27:53.881Z,22.62
2017-05-28T07:29:02.848Z,22.65
2017-05-28T07:30:12.140Z,22.65
2017-05-28T07:31:21.197Z,22.7
2017-05-28T07:32:30.409Z,22.75
2017-05-28T07:33:39.372Z,22.75
2017-05-28T07:34:48.337Z,22.82
2017-05-28T07:35:57.387Z,22.7
2017-05-28T07:37:06.352Z,22.8
2017-05-28T07:38:15.568Z,22.9
2017-05-28T07:39:24.534Z,22.83
2017-05-28T07:40:33.509Z,22.88
2017-05-28T07:41:42.475Z,22.98
2017-05-28T07:42:51.439Z,22.91
2017-05-28T07:44:00.794Z,22.91
2017-05-28T07:45:09.755Z,22.94
2017-05-28T07:46:18.722Z,22.97
2017-05-28T07:47:28.015Z,23
2017-05-28T07:48:36.979Z,23.07
2017-05-28T07:49:46.371Z,23.09
2017-05-28T07:50:55.333Z,23.12
2017-05-28T07:52:04.296Z,23.1
2017-05-28T07:53:13.262Z,23.16
2017-05-28T07:54:22.232Z,23.16
2017-05-28T07:55:31.449Z,23.15
2017-05-28T07:56:40.417Z,23.23
2017-05-28T07:57:49.377Z,23.16
2017-05-28T07:58:58.344Z,23.22
2017-05-28T08:00:07.310Z,23.32
2017-05-28T08:01:16.849Z,23.33
2017-05-28T08:02:25.811Z,23.28
2017-05-28T08:03:34.772Z,23.38
2017-05-28T08:04:43.745Z,23.43
2017-05-28T08:05:52.714Z,23.46
2017-05-28T08:07:01.931Z,23.48
2017-05-28T08:08:10.893Z,23.47
2017-05-28T08:09:19.853Z,23.58
2017-05-28T08:10:28.820Z,23.61
2017-05-28T08:11:37.805Z,23.68
2017-05-28T08:12:47.112Z,23.7
2017-05-28T08:13:56.078Z,23.73
2017-05-28T08:15:05.046Z,23.78
2017-05-28T08:16:14.010Z,23.76
2017-05-28T08:17:22.973Z,23.87
2017-05-28T08:18:32.188Z,23.9
2017-05-28T08:19:41.148Z,23.97
2017-05-28T08:20:50.118Z,24.02
2017-05-28T08:21:59.079Z,24.02
2017-05-28T08:23:08.041Z,24.06
2017-05-28T08:24:17.256Z,24.1
2017-05-28T08:25:26.224Z,24.13
2017-05-28T08:26:35.184Z,24.2
2017-05-28T08:27:44.150Z,24.15
2017-05-28T08:28:53.117Z,24.16
2017-05-28T08:30:02.426Z,24.32
2017-05-28T08:31:11.471Z,24.28
2017-05-28T08:32:20.535Z,24.34
2017-05-28T08:33:29.498Z,24.4
2017-05-28T08:34:38.555Z,24.42
2017-05-28T08:35:47.820Z,24.5
2017-05-28T08:36:56.784Z,24.57
2017-05-28T08:38:05.749Z,24.61
2017-05-28T08:39:14.715Z,24.57
2017-05-28T08:40:23.677Z,24.69
2017-05-28T08:41:32.979Z,24.71
2017-05-28T08:42:41.948Z,24.83
2017-05-28T08:43:50.916Z,24.78
2017-05-28T08:44:59.884Z,24.85
2017-05-28T08:46:08.853Z,24.93
2017-05-28T08:47:18.068Z,25.03
2017-05-28T08:48:27.033Z,24.95
2017-05-28T08:49:36.007Z,24.87
2017-05-28T08:50:44.972Z,25.09
2017-05-28T08:51:53.939Z,25.15
2017-05-28T08:53:03.477Z,25.17
2017-05-28T08:54:12.593Z,25.15
2017-05-28T08:55:21.564Z,25.17
2017-05-28T08:56:30.527Z,25.2
2017-05-28T08:57:39.511Z,25.28
2017-05-28T08:58:48.727Z,25.24
2017-05-28T08:59:57.692Z,25.28
2017-05-28T09:01:06.663Z,25.28
2017-05-28T09:02:15.630Z,25.24
2017-05-28T09:03:24.596Z,25.3
2017-05-28T09:04:33.814Z,25.28
2017-05-28T09:05:42.781Z,25.23
2017-05-28T09:06:51.750Z,25.27
2017-05-28T09:08:00.716Z,25.2
2017-05-28T09:09:09.681Z,25.21
2017-05-28T09:10:19.312Z,25.24
2017-05-28T09:11:28.274Z,25.28
2017-05-28T09:12:37.244Z,25.25
2017-05-28T09:13:46.211Z,25.28
2017-05-28T09:14:55.518Z,25.32
2017-05-28T09:16:04.787Z,25.28
2017-05-28T09:17:13.802Z,25.46
2017-05-28T09:18:22.768Z,25.46
2017-05-28T09:19:31.728Z,25.46
2017-05-28T09:20:40.694Z,25.46
2017-05-28T09:21:49.916Z,25.47
2017-05-28T09:22:58.884Z,25.54
2017-05-28T09:24:07.850Z,25.52
2017-05-28T09:25:16.907Z,25.55
2017-05-28T09:26:25.871Z,25.54
2017-05-28T09:27:35.158Z,25.6
2017-05-28T09:28:44.448Z,25.57
2017-05-28T09:29:53.412Z,25.55
2017-05-28T09:31:02.383Z,25.67
2017-05-28T09:32:11.354Z,25.7
2017-05-28T09:33:20.884Z,25.72
2017-05-28T09:34:29.856Z,25.69
2017-05-28T09:35:38.819Z,25.69
2017-05-28T09:36:47.791Z,25.8
2017-05-28T09:37:56.754Z,25.83
2017-05-28T09:39:05.975Z,25.79
2017-05-28T09:40:14.942Z,25.83
2017-05-28T09:41:23.908Z,25.9
2017-05-28T09:42:32.880Z,25.87
2017-05-28T09:43:41.848Z,25.9
2017-05-28T09:44:51.126Z,25.94
2017-05-28T09:46:00.092Z,25.9
2017-05-28T09:47:09.058Z,25.9
2017-05-28T09:48:18.029Z,25.95
2017-05-28T09:49:27.318Z,25.88
2017-05-28T09:50:36.534Z,25.95
2017-05-28T09:51:45.501Z,25.94
2017-05-28T09:52:54.471Z,25.99
2017-05-28T09:54:03.440Z,26.02
2017-05-28T09:55:12.409Z,26.01
2017-05-28T09:56:21.627Z,26.06
2017-05-28T09:57:30.928Z,26.12
2017-05-28T09:58:39.897Z,26.02
2017-05-28T09:59:49.035Z,26.01
2017-05-28T10:00:58.000Z,26.07
2017-05-28T10:02:07.232Z,26.18
2017-05-28T10:03:16.196Z,26.15
2017-05-28T10:04:25.230Z,26.21
2017-05-28T10:05:34.202Z,26.18
2017-05-28T10:06:43.170Z,26.2
2017-05-28T10:07:52.389Z,26.25
2017-05-28T10:09:01.359Z,26.29
2017-05-28T10:10:10.331Z,26.17
2017-05-28T10:11:19.300Z,26.29
2017-05-28T10:12:28.267Z,26.28
2017-05-28T10:13:37.489Z,26.26
2017-05-28T10:14:46.473Z,26.26
2017-05-28T10:15:55.441Z,26.3
2017-05-28T10:17:04.405Z,26.29
2017-05-28T10:18:13.385Z,26.47
2017-05-28T10:19:22.605Z,26.45
2017-05-28T10:20:31.577Z,26.5
2017-05-28T10:21:40.551Z,26.45
2017-05-28T10:22:49.518Z,26.45
2017-05-28T10:23:58.494Z,26.44
2017-05-28T10:25:07.714Z,26.44
2017-05-28T10:26:16.680Z,26.47
2017-05-28T10:27:25.649Z,26.45
2017-05-28T10:28:34.613Z,26.58
2017-05-28T10:29:43.574Z,26.54
2017-05-28T10:30:52.792Z,26.52
2017-05-28T10:32:01.756Z,26.62
2017-05-28T10:33:10.728Z,26.57
2017-05-28T10:34:19.695Z,26.52
2017-05-28T10:35:28.660Z,26.58
2017-05-28T10:36:37.974Z,26.57
2017-05-28T10:37:46.936Z,26.69
2017-05-28T10:38:55.911Z,26.72
2017-05-28T10:40:04.900Z,26.72
2017-05-28T10:41:13.871Z,26.67
2017-05-28T10:42:23.410Z,26.67
2017-05-28T10:43:32.382Z,26.77
2017-05-28T10:44:41.349Z,26.73
2017-05-28T10:45:50.323Z,26.77
2017-05-28T10:46:59.283Z,26.88
2017-05-28T10:48:08.509Z,26.82
2017-05-28T10:49:17.480Z,26.94
2017-05-28T10:50:26.446Z,26.87
2017-05-28T10:51:35.413Z,26.89
2017-05-28T10:52:44.430Z,26.89
2017-05-28T10:53:53.644Z,26.91
2017-05-28T10:55:02.619Z,27.02
2017-05-28T10:56:11.673Z,27.02
2017-05-28T10:57:20.648Z,27.03
2017-05-28T10:58:29.617Z,27.09
2017-05-28T10:59:38.927Z,27.12
2017-05-28T11:00:47.896Z,27.13
2017-05-28T11:01:56.867Z,27.14
2017-05-28T11:03:05.834Z,27.18
2017-05-28T11:04:14.804Z,27.22
2017-05-28T11:05:24.400Z,27.25
2017-05-28T11:06:33.449Z,27.25
2017-05-28T11:07:42.414Z,27.32
2017-05-28T11:08:51.715Z,27.29
2017-05-28T11:10:00.687Z,27.44
2017-05-28T11:11:09.992Z,27.37
2017-05-28T11:12:18.958Z,27.43
2017-05-28T11:13:27.921Z,27.37
2017-05-28T11:14:36.953Z,27.4
2017-05-28T11:15:45.921Z,27.43
2017-05-28T11:16:55.133Z,27.5
2017-05-28T11:18:04.099Z,27.47
2017-05-28T11:19:13.063Z,27.62
2017-05-28T11:20:22.035Z,27.51
2017-05-28T11:21:31.031Z,27.5
2017-05-28T11:22:40.244Z,27.55
2017-05-28T11:23:49.551Z,27.49
2017-05-28T11:24:58.519Z,27.55
2017-05-28T11:26:07.490Z,27.54
2017-05-28T11:27:16.460Z,27.5
2017-05-28T11:28:25.672Z,27.62
2017-05-28T11:29:34.642Z,27.5
2017-05-28T11:30:43.702Z,27.5
2017-05-28T11:31:52.667Z,27.57
2017-05-28T11:33:01.636Z,27.62
2017-05-28T11:34:10.854Z,27.66
2017-05-28T11:35:19.826Z,27.6
2017-05-28T11:36:28.801Z,27.54
2017-05-28T11:37:38.100Z,27.54
2017-05-28T11:38:47.072Z,27.62
2017-05-28T11:39:56.620Z,27.63
2017-05-28T11:41:05.692Z,27.59
2017-05-28T11:42:14.751Z,27.63
2017-05-28T11:43:23.721Z,27.6
2017-05-28T11:44:32.780Z,27.65
2017-05-28T11:45:42.089Z,27.6
2017-05-28T11:46:51.054Z,27.51
2017-05-28T11:48:00.039Z,27.57
2017-05-28T11:49:09.010Z,27.54
2017-05-28T11:50:17.979Z,27.57
2017-05-28T11:51:27.195Z,27.5
2017-05-28T11:52:36.162Z,27.44
2017-05-28T11:53:45.138Z,27.41
2017-05-28T11:54:54.108Z,27.4
2017-05-28T11:56:03.163Z,27.37
2017-05-28T11:57:12.389Z,27.44
2017-05-28T11:58:21.355Z,27.4
2017-05-28T11:59:30.321Z,27.47
2017-05-28T12:00:39.384Z,27.54
2017-05-28T12:01:48.353Z,27.55
2017-05-28T12:02:57.574Z,27.6
2017-05-28T12:04:06.537Z,27.54
2017-05-28T12:05:15.505Z,27.54
2017-05-28T12:06:24.467Z,27.62
2017-05-28T12:07:33.440Z,27.49
2017-05-28T12:08:42.659Z,27.6
2017-05-28T12:09:51.976Z,27.59
2017-05-28T12:11:01.267Z,27.67
2017-05-28T12:12:10.235Z,27.65
2017-05-28T12:13:19.210Z,27.67
2017-05-28T12:14:28.423Z,27.62
2017-05-28T12:15:37.391Z,27.65
2017-05-28T12:16:46.358Z,27.57
2017-05-28T12:17:55.383Z,27.6
2017-05-28T12:19:04.350Z,27.6
2017-05-28T12:20:13.577Z,27.46
2017-05-28T12:21:22.544Z,27.54
2017-05-28T12:22:31.510Z,27.54
2017-05-28T12:23:40.481Z,27.43
2017-05-28T12:24:49.454Z,27.46
2017-05-28T12:25:58.760Z,27.57
2017-05-28T12:27:07.731Z,27.65
2017-05-28T12:28:16.697Z,27.57
2017-05-28T12:29:25.998Z,27.65
2017-05-28T12:30:35.292Z,27.75
2017-05-28T12:31:44.842Z,27.72
2017-05-28T12:32:53.812Z,27.69
2017-05-28T12:34:02.786Z,27.69
2017-05-28T12:35:11.766Z,27.69
2017-05-28T12:36:20.741Z,27.7
2017-05-28T12:37:30.009Z,27.72
2017-05-28T12:38:38.978Z,27.67
2017-05-28T12:39:47.947Z,27.6
2017-05-28T12:40:56.912Z,27.54
2017-05-28T12:42:05.885Z,27.47
2017-05-28T12:43:15.106Z,27.54
2017-05-28T12:44:24.080Z,27.59
2017-05-28T12:45:33.046Z,27.62
2017-05-28T12:46:42.014Z,27.54
2017-05-28T12:47:50.984Z,27.6
2017-05-28T12:49:00.213Z,27.57
2017-05-28T12:50:09.182Z,27.63
2017-05-28T12:51:18.146Z,27.59
2017-05-28T12:52:27.119Z,27.6
2017-05-28T12:53:36.083Z,27.57
2017-05-28T12:54:45.055Z,27.65
2017-05-28T12:55:54.111Z,27.54
2017-05-28T12:57:03.408Z,27.54
2017-05-28T12:58:12.376Z,27.57
2017-05-28T12:59:21.602Z,27.7
2017-05-28T13:00:30.570Z,27.69
2017-05-28T13:01:39.540Z,27.78
2017-05-28T13:02:48.513Z,27.75
2017-05-28T13:03:57.494Z,27.84
2017-05-28T13:05:06.705Z,27.82
2017-05-28T13:06:15.689Z,27.77
2017-05-28T13:07:24.658Z,27.85
2017-05-28T13:08:33.629Z,27.82
2017-05-28T13:09:42.596Z,27.79
2017-05-28T13:10:51.811Z,27.74
2017-05-28T13:12:00.783Z,27.72
2017-05-28T13:13:09.755Z,27.82
2017-05-28T13:14:19.052Z,27.82
2017-05-28T13:15:28.029Z,27.99
2017-05-28T13:16:37.293Z,27.94
2017-05-28T13:17:46.258Z,28.09
2017-05-28T13:18:55.241Z,28.04
2017-05-28T13:20:04.211Z,28.07
2017-05-28T13:21:13.176Z,28.12
2017-05-28T13:22:22.394Z,28.24
2017-05-28T13:23:31.366Z,28.19
2017-05-28T13:24:40.328Z,28.17
2017-05-28T13:25:49.297Z,28.31
2017-05-28T13:26:58.283Z,28.27
2017-05-28T13:28:07.497Z,28.29
2017-05-28T13:29:16.467Z,28.36
2017-05-28T13:30:25.445Z,28.3
2017-05-28T13:31:34.415Z,28.33
2017-05-28T13:32:43.385Z,28.34
2017-05-28T13:33:52.604Z,28.3
2017-05-28T13:35:01.575Z,28.31
2017-05-28T13:36:10.544Z,28.36
2017-05-28T13:37:19.517Z,28.37
2017-05-28T13:38:28.490Z,28.34
2017-05-28T13:39:37.761Z,28.31
2017-05-28T13:40:46.728Z,28.18
2017-05-28T13:41:55.785Z,28.27
2017-05-28T13:43:04.760Z,28.25
2017-05-28T13:44:13.726Z,28.21
2017-05-28T13:45:22.946Z,28.18
2017-05-28T13:46:31.923Z,28.3
2017-05-28T13:47:40.887Z,28.24
2017-05-28T13:48:49.861Z,28.25
2017-05-28T13:49:58.845Z,28.17
2017-05-28T13:51:08.061Z,28.19
2017-05-28T13:52:17.044Z,28.21
2017-05-28T13:53:26.012Z,28.18
2017-05-28T13:54:34.985Z,28.24
2017-05-28T13:55:43.953Z,28.3
2017-05-28T13:56:53.512Z,28.27
2017-05-28T13:58:02.575Z,28.27
2017-05-28T13:59:11.544Z,28.21
2017-05-28T14:00:20.919Z,28.21
2017-05-28T14:01:29.886Z,28.24
2017-05-28T14:02:39.099Z,28.31
2017-05-28T14:03:48.069Z,28.33
2017-05-28T14:04:57.037Z,28.34
2017-05-28T14:06:06.008Z,28.37
2017-05-28T14:07:14.974Z,28.22
2017-05-28T14:08:24.201Z,28.3
2017-05-28T14:09:33.496Z,28.31
2017-05-28T14:10:42.465Z,28.22
2017-05-28T14:11:51.437Z,28.27
2017-05-28T14:13:00.413Z,28.21
2017-05-28T14:14:09.631Z,28.33
2017-05-28T14:15:18.609Z,28.22
2017-05-28T14:16:27.580Z,28.17
2017-05-28T14:17:36.551Z,28.17
2017-05-28T14:18:45.522Z,28.12
2017-05-28T14:19:54.742Z,28.02
2017-05-28T14:21:03.714Z,27.99
2017-05-28T14:22:12.678Z,27.94
2017-05-28T14:23:21.717Z,27.97
2017-05-28T14:24:30.687Z,27.9
2017-05-28T14:25:39.909Z,27.87
2017-05-28T14:26:48.975Z,27.88
2017-05-28T14:27:57.966Z,27.92
2017-05-28T14:29:06.934Z,27.93
2017-05-28T14:30:15.906Z,27.96
2017-05-28T14:31:25.259Z,27.92
2017-05-28T14:32:34.226Z,27.99
2017-05-28T14:33:43.189Z,27.87
2017-05-28T14:34:52.159Z,27.79
2017-05-28T14:36:01.131Z,27.88
2017-05-28T14:37:10.350Z,27.87
2017-05-28T14:38:19.318Z,27.82
2017-05-28T14:39:28.287Z,27.79
2017-05-28T14:40:37.577Z,27.82
2017-05-28T14:41:46.549Z,27.84
2017-05-28T14:42:55.767Z,27.79
2017-05-28T14:44:04.739Z,27.74
2017-05-28T14:45:13.704Z,27.62
2017-05-28T14:46:22.676Z,27.63
2017-05-28T14:47:31.702Z,27.51
2017-05-28T14:48:40.924Z,27.46
2017-05-28T14:49:50.003Z,27.57
2017-05-28T14:50:58.975Z,27.57
2017-05-28T14:52:07.937Z,27.51